FW0211 Weather Reports


Display with metric or nautical units.
time (UTC)temp
F
wind
direction
speed
MPH
gust
MPH
rain 1hr
in
rain 24hr
in
rain mn
in
humidity
%
barometer
mb
20210916110008 72 5 9.0 14.0 0.00 0.04 0.00 94 1009.2
20210916104515 73 17 11.0 16.0 0.00 0.04 0.00 93 1009.1
20210916103005 73 10 8.0 14.0 0.00 0.04 0.00 93 1009.0
20210916101511 73 5 9.0 13.0 0.00 0.04 0.00 93 1009.0
20210916100003 73 355 8.0 14.0 0.00 0.04 0.00 93 1009.1
20210916094502 73 360 10.0 15.0 0.00 0.04 0.00 93 1009.1
20210916091628 73 11 10.0 14.0 0.00 0.04 0.00 92 1009.0
20210916090141 73 355 10.0 15.0 0.00 0.04 0.00 92 1009.0
20210916084728 74 17 9.0 16.0 0.00 0.04 0.00 92 1009.1
20210916083219 74 23 9.0 15.0 0.00 0.04 0.00 92 1009.1
20210916081628 74 19 9.0 16.0 0.00 0.04 0.00 92 1008.9
20210916080131 74 5 7.0 13.0 0.00 0.04 0.00 92 1009.1
20210916074711 74 10 9.0 13.0 0.00 0.05 0.00 92 1009.1
20210916073056 74 9 10.0 15.0 0.00 0.05 0.00 92 1009.3
20210916071603 74 360 10.0 13.0 0.00 0.05 0.00 92 1009.4
20210916070144 74 5 8.0 13.0 0.00 0.05 0.00 92 1009.7
20210916064651 74 13 9.0 12.0 0.00 0.05 0.00 92 1009.8
20210916063045 75 19 8.0 11.0 0.00 0.05 0.00 92 1009.8
20210916061701 75 22 9.0 15.0 0.00 0.05 0.00 92 1009.8
20210916060113 75 5 9.0 13.0 0.00 0.05 0.00 93 1009.8
20210916054553 75 32 8.0 13.0 0.00 0.05 0.00 93 1009.8
20210916053030 75 23 9.0 13.0 0.00 0.05 0.00 93 1009.9
20210916051548 75 5 10.0 13.0 0.00 0.05 0.00 93 1010.0
20210916050024 75 33 10.0 14.0 0.00 0.05 0.05 93 1010.0
20210916044543 75 5 7.0 11.0 0.00 0.05 0.05 94 1010.0
20210916043018 75 5 5.0 10.0 0.00 0.05 0.05 94 1010.0
20210916041519 75 5 9.0 12.0 0.00 0.05 0.05 94 1010.0
20210916040020 75 355 6.0 10.0 0.00 0.05 0.05 94 1010.0
20210916034534 75 22 6.0 10.0 0.00 0.05 0.05 94 1010.0
20210916033041 75 16 9.0 12.0 0.00 0.05 0.05 93 1010.0
20210916031527 75 20 9.0 14.0 0.00 0.05 0.05 93 1010.0
20210916030040 75 34 11.0 18.0 0.00 0.05 0.05 93 1010.1
20210916024514 75 20 9.0 16.0 0.00 0.05 0.05 92 1010.1
20210916023022 75 41 9.0 15.0 0.00 0.05 0.05 92 1009.8
20210916021537 75 23 13.0 17.0 0.00 0.05 0.05 93 1009.7
20210916020019 75 12 10.0 16.0 0.00 0.05 0.05 93 1009.6
20210916014512 75 5 11.0 17.0 0.00 0.05 0.05 93 1009.3
20210916013011 75 13 9.0 15.0 0.00 0.05 0.05 93 1009.2
20210916011511 75 32 11.0 15.0 0.00 0.05 0.05 93 1008.9
20210916010016 75 18 12.0 19.0 0.00 0.05 0.05 93 1008.7
20210916004525 75 19 16.0 24.0 0.00 0.05 0.05 92 1008.4
20210916003010 75 360 16.0 21.0 0.00 0.05 0.05 93 1008.2
20210916001514 75 29 15.0 22.0 0.00 0.05 0.05 92 1008.0
20210916000008 76 28 14.0 23.0 0.01 0.05 0.05 92 1008.0
20210915234534 76 360 14.0 19.0 0.01 0.05 0.05 92 1007.8
20210915233013 76 360 17.0 22.0 0.01 0.05 0.05 92 1007.7
20210915231517 76 5 14.0 19.0 0.01 0.05 0.05 91 1007.7
20210915230017 77 20 12.0 17.0 0.00 0.04 0.04 91 1007.6
20210915224514 77 11 13.0 19.0 0.02 0.04 0.04 92 1007.3
20210915223019 77 355 11.0 14.0 0.02 0.04 0.04 92 1007.4
20210915221507 76 355 10.0 14.0 0.02 0.04 0.04 93 1007.3
20210915220006 76 342 12.0 19.0 0.02 0.04 0.04 92 1007.3
20210915214655 77 348 6.0 14.0 0.01 0.02 0.02 90 1007.4
20210915213237 77 345 12.0 17.0 0.01 0.02 0.02 90 1007.4
20210915211722 76 333 11.0 17.0 0.01 0.02 0.02 91 1007.3
20210915210135 77 338 12.0 17.0 0.01 0.02 0.02 88 1007.3
20210915204733 78 331 14.0 17.0 0.00 0.01 0.01 89 1007.4
20210915203142 77 328 17.0 24.0 0.00 0.01 0.01 87 1007.4
20210915201752 78 336 12.0 19.0 0.00 0.01 0.01 87 1007.6
20210915200134 78 333 16.0 21.0 0.00 0.01 0.01 86 1007.6
20210915194625 78 340 15.0 20.0 0.00 0.01 0.01 87 1007.9
20210915193144 78 355 12.0 16.0 0.00 0.01 0.01 89 1007.9
20210915191655 77 337 11.0 18.0 0.00 0.01 0.01 91 1008.2
20210915190147 76 342 13.0 20.0 0.00 0.01 0.01 92 1008.5
20210915184651 77 331 13.0 19.0 0.00 0.02 0.01 89 1008.6
20210915183144 77 347 15.0 20.0 0.00 0.02 0.01 90 1008.7
20210915181552 77 313 15.0 20.0 0.00 0.02 0.01 91 1009.1
20210915180303 77 318 12.0 17.0 0.00 0.02 0.01 93 1009.3
20210915174604 75 337 14.0 20.0 0.00 0.03 0.01 93 1009.6
20210915173128 75 328 12.0 15.0 0.00 0.03 0.01 94 1009.9
20210915171639 75 329 11.0 14.0 0.00 0.03 0.01 95 1009.9
20210915170139 74 311 11.0 17.0 0.00 0.03 0.01 95 1010.0
20210915163109 74 338 10.0 16.0 0.00 0.06 0.01 94 1010.2
20210915161551 74 336 13.0 16.0 0.00 0.06 0.01 93 1010.2
20210915154609 74 338 13.0 18.0 0.00 0.07 0.01 92 1009.9
20210915153026 75 329 13.0 19.0 0.00 0.07 0.01 92 1009.6
20210915151536 74 333 13.0 18.0 0.00 0.07 0.01 92 1009.3
20210915150040 74 316 14.0 19.0 0.00 0.07 0.01 93 1009.0
20210915144540 74 313 14.0 19.0 0.00 0.07 0.01 94 1009.1
20210915143019 73 320 14.0 20.0 0.00 0.07 0.01 94 1008.9
20210915141514 73 334 13.0 18.0 0.00 0.07 0.01 95 1008.8
20210915140021 73 315 12.0 17.0 0.00 0.16 0.01 96 1008.7
20210915134521 73 329 12.0 16.0 0.00 0.16 0.01 96 1008.6
20210915133040 72 317 10.0 16.0 0.00 0.16 0.01 96 1008.6
20210915131522 72 329 12.0 16.0 0.00 0.16 0.01 96 1008.5
20210915130012 72 344 13.0 15.0 0.00 0.17 0.01 96 1008.4
20210915124511 72 346 12.0 16.0 0.00 0.17 0.01 96 1008.5
20210915123005 72 337 10.0 16.0 0.00 0.17 0.01 97 1008.3
20210915121502 72 323 10.0 14.0 0.00 0.17 0.01 97 1008.3
20210915120113 72 335 10.0 17.0 0.00 0.17 0.01 97 1007.9
20210915114711 72 321 10.0 15.0 0.00 0.19 0.01 97 1007.8
20210915113128 72 323 11.0 16.0 0.00 0.19 0.01 97 1007.6
20210915111711 72 337 9.0 15.0 0.00 0.19 0.01 97 1007.3